createdAt,value
2023-05-08T00:02:40.188Z,12.83
2023-05-08T00:06:42.366Z,13.50
2023-05-08T00:10:44.289Z,13.43
2023-05-08T00:14:48.785Z,13.07
2023-05-08T00:18:51.009Z,13.20
2023-05-08T00:22:53.024Z,12.60
2023-05-08T00:26:55.263Z,12.93
2023-05-08T00:31:02.437Z,13.73
2023-05-08T00:35:04.911Z,12.37
2023-05-08T00:39:09.586Z,11.83
2023-05-08T00:43:12.308Z,11.73
2023-05-08T00:47:15.073Z,12.77
2023-05-08T00:51:19.500Z,12.40
2023-05-08T00:55:21.477Z,11.67
2023-05-08T00:59:25.601Z,11.70
2023-05-08T01:03:28.871Z,12.13
2023-05-08T01:07:31.286Z,11.90
2023-05-08T01:11:36.652Z,11.27
2023-05-08T01:15:53.584Z,13.07
2023-05-08T01:19:59.261Z,12.07
2023-05-08T01:24:04.361Z,12.80
2023-05-08T01:28:36.908Z,12.50
2023-05-08T01:32:42.778Z,12.03
2023-05-08T01:36:48.472Z,12.50
2023-05-08T01:40:56.628Z,12.20
2023-05-08T01:45:01.455Z,12.67
2023-05-08T01:49:07.038Z,11.77
2023-05-08T01:53:12.778Z,12.03
2023-05-08T01:57:15.874Z,13.50
2023-05-08T02:01:20.332Z,12.90
2023-05-08T02:05:24.276Z,12.00
2023-05-08T02:09:28.307Z,12.37
2023-05-08T02:13:31.389Z,11.90
2023-05-08T02:17:35.496Z,12.53
2023-05-08T02:21:40.032Z,10.40
2023-05-08T02:25:45.691Z,11.70
2023-05-08T02:29:47.428Z,10.73
2023-05-08T02:33:52.375Z,12.37
2023-05-08T02:37:56.338Z,11.43
2023-05-08T02:41:59.136Z,11.70
2023-05-08T02:46:22.907Z,12.13
2023-05-08T02:50:31.099Z,11.60
2023-05-08T02:54:57.422Z,12.30
2023-05-08T02:59:12.220Z,12.23
2023-05-08T03:03:32.882Z,12.90
2023-05-08T03:07:37.702Z,11.63
2023-05-08T03:11:42.056Z,11.40
2023-05-08T03:15:50.983Z,11.67
2023-05-08T03:19:56.605Z,12.27
2023-05-08T03:24:01.795Z,12.37
2023-05-08T03:28:04.552Z,12.13
2023-05-08T03:32:07.615Z,11.90
2023-05-08T03:36:09.490Z,11.23
2023-05-08T03:40:11.738Z,12.50
2023-05-08T03:44:16.521Z,11.60
2023-05-08T03:48:18.482Z,10.80
2023-05-08T03:52:20.061Z,12.97
2023-05-08T03:56:21.220Z,10.87
2023-05-08T04:00:37.974Z,10.97
2023-05-08T04:04:40.581Z,11.57
2023-05-08T04:09:02.502Z,11.90
2023-05-08T04:13:10.171Z,12.57
2023-05-08T04:17:15.177Z,11.80
2023-05-08T04:21:19.628Z,11.63
2023-05-08T04:25:21.427Z,12.50
2023-05-08T04:29:23.872Z,12.20
2023-05-08T04:33:25.915Z,11.60
2023-05-08T04:37:30.986Z,12.50
2023-05-08T04:41:32.776Z,11.70
2023-05-08T04:45:33.860Z,11.27
2023-05-08T04:49:35.033Z,11.57
2023-05-08T04:53:36.939Z,11.83
2023-05-08T04:57:38.152Z,10.40
2023-05-08T05:01:39.370Z,12.20
2023-05-08T05:05:40.476Z,10.80
2023-05-08T05:09:41.613Z,12.23
2023-05-08T05:13:42.680Z,12.77
2023-05-08T05:17:43.988Z,11.90
2023-05-08T05:21:45.374Z,12.73
2023-05-08T05:25:46.546Z,11.90
2023-05-08T05:29:47.713Z,12.23
2023-05-08T05:33:48.916Z,11.77
2023-05-08T05:37:50.066Z,11.73
2023-05-08T05:41:53.179Z,13.00
2023-05-08T05:45:57.310Z,11.90
2023-05-08T05:49:58.512Z,11.27
2023-05-08T05:54:00.048Z,11.97
2023-05-08T05:58:01.169Z,12.00
2023-05-08T06:02:04.497Z,12.67
2023-05-08T06:06:06.788Z,12.20
2023-05-08T06:10:08.544Z,12.13
2023-05-08T06:14:10.749Z,12.73
2023-05-08T06:18:12.964Z,11.63
2023-05-08T06:22:16.986Z,12.43
2023-05-08T06:26:20.125Z,14.00
2023-05-08T06:30:22.892Z,11.20
2023-05-08T06:34:24.275Z,12.70
2023-05-08T06:38:25.414Z,13.00
2023-05-08T06:42:26.897Z,11.70
2023-05-08T06:46:29.198Z,12.57
2023-05-08T06:50:30.800Z,11.70
2023-05-08T06:54:31.986Z,12.00
2023-05-08T06:58:33.143Z,11.80
2023-05-08T07:02:34.457Z,11.67
2023-05-08T07:06:35.583Z,12.43
2023-05-08T07:10:36.766Z,11.63
2023-05-08T07:14:37.933Z,12.87
2023-05-08T07:18:39.124Z,12.67
2023-05-08T07:22:40.502Z,12.53
2023-05-08T07:26:41.906Z,13.37
2023-05-08T07:30:43.093Z,13.13
2023-05-08T07:34:44.389Z,11.57
2023-05-08T07:38:45.527Z,8.47
2023-05-08T07:42:46.653Z,12.63
2023-05-08T07:46:48.159Z,13.17
2023-05-08T07:50:49.941Z,13.33
2023-05-08T07:54:51.218Z,13.23
2023-05-08T07:58:52.656Z,12.10
2023-05-08T08:02:54.174Z,12.30
2023-05-08T08:06:57.161Z,13.83
2023-05-08T08:10:58.612Z,14.63
2023-05-08T08:15:00.703Z,13.97
2023-05-08T08:19:02.542Z,12.73
2023-05-08T08:23:04.487Z,14.00
2023-05-08T08:27:06.015Z,13.53
2023-05-08T08:31:08.331Z,12.40
2023-05-08T08:35:12.167Z,13.20
2023-05-08T08:39:15.402Z,13.43
2023-05-08T08:43:17.367Z,13.30
2023-05-08T08:47:21.015Z,12.60
2023-05-08T08:51:28.766Z,12.10
2023-05-08T08:55:31.943Z,12.67
2023-05-08T08:59:34.028Z,11.83
2023-05-08T09:03:35.242Z,11.17
2023-05-08T09:07:39.705Z,11.33
2023-05-08T09:11:42.986Z,12.87
2023-05-08T09:15:44.170Z,13.23
2023-05-08T09:19:49.139Z,15.03
2023-05-08T09:23:58.791Z,13.23
2023-05-08T09:28:06.920Z,13.23
2023-05-08T09:32:11.922Z,13.83
2023-05-08T09:36:24.020Z,12.83
2023-05-08T09:40:25.488Z,12.70
2023-05-08T09:44:26.949Z,13.17
2023-05-08T09:48:38.771Z,13.80
2023-05-08T09:52:44.240Z,11.87
2023-05-08T09:56:46.055Z,12.40
2023-05-08T10:00:47.468Z,12.50
2023-05-08T10:04:48.635Z,12.37
2023-05-08T10:09:11.433Z,12.90
2023-05-08T10:13:13.487Z,12.37
2023-05-08T10:17:18.295Z,12.67
2023-05-08T10:21:19.781Z,13.67
2023-05-08T10:25:22.581Z,13.70
2023-05-08T10:29:32.935Z,12.13
2023-05-08T10:33:35.111Z,13.27
2023-05-08T10:37:39.063Z,13.77
2023-05-08T10:41:41.061Z,14.10
2023-05-08T10:45:43.125Z,15.10
2023-05-08T10:50:03.373Z,14.83
2023-05-08T10:54:08.200Z,13.87
2023-05-08T10:58:15.047Z,14.80
2023-05-08T11:02:18.288Z,13.30
2023-05-08T11:06:46.037Z,13.40
2023-05-08T11:11:04.304Z,14.30
2023-05-08T11:15:06.644Z,14.47
2023-05-08T11:19:19.023Z,13.53
2023-05-08T11:23:24.915Z,13.47
2023-05-08T11:27:35.113Z,14.00
2023-05-08T11:31:49.710Z,12.17
2023-05-08T11:35:57.698Z,13.60
2023-05-08T11:40:03.859Z,12.80
2023-05-08T11:44:14.664Z,14.50
2023-05-08T11:48:18.678Z,13.60
2023-05-08T11:52:20.247Z,13.90
2023-05-08T11:56:21.967Z,14.97
2023-05-08T12:00:23.291Z,14.57
2023-05-08T12:04:25.240Z,13.10
2023-05-08T12:08:26.593Z,13.77
2023-05-08T12:12:41.348Z,12.37
2023-05-08T12:16:42.706Z,14.27
2023-05-08T12:20:44.076Z,14.63
2023-05-08T12:24:46.108Z,14.07
2023-05-08T12:28:55.980Z,13.77
2023-05-08T12:32:57.567Z,13.30
2023-05-08T12:37:03.380Z,13.57
2023-05-08T12:41:06.583Z,14.60
2023-05-08T12:45:08.274Z,15.03
2023-05-08T12:49:11.459Z,14.50
2023-05-08T12:53:14.795Z,12.60
2023-05-08T12:57:18.466Z,12.90
2023-05-08T13:01:20.333Z,12.93
2023-05-08T13:05:22.902Z,13.37
2023-05-08T13:09:23.980Z,13.00
2023-05-08T13:13:27.631Z,14.80
2023-05-08T13:17:29.166Z,15.30
2023-05-08T13:21:30.628Z,15.07
2023-05-08T13:25:32.690Z,13.90
2023-05-08T13:29:33.856Z,15.07
2023-05-08T13:33:34.997Z,14.77
2023-05-08T13:37:36.505Z,13.83
2023-05-08T13:41:37.665Z,14.40
2023-05-08T13:45:38.809Z,15.33
2023-05-08T13:49:39.957Z,14.90
2023-05-08T13:53:41.334Z,14.77
2023-05-08T13:57:42.857Z,12.20
2023-05-08T14:01:44.089Z,11.97
2023-05-08T14:05:45.187Z,14.03
2023-05-08T14:09:46.445Z,13.00
2023-05-08T14:13:47.671Z,11.90
2023-05-08T14:17:48.934Z,12.07
2023-05-08T14:21:50.622Z,11.27
2023-05-08T14:25:51.753Z,11.80
2023-05-08T14:29:53.615Z,11.40
2023-05-08T14:33:54.880Z,10.10
2023-05-08T14:37:57.482Z,12.63
2023-05-08T14:42:21.481Z,11.03
2023-05-08T14:46:04.396Z,11.00
2023-05-08T14:50:07.443Z,10.43
2023-05-08T14:54:11.938Z,11.20
2023-05-08T14:58:13.818Z,12.50
2023-05-08T15:02:16.459Z,12.37
2023-05-08T15:06:20.506Z,11.70
2023-05-08T15:10:21.956Z,12.10
2023-05-08T15:14:23.842Z,11.73
2023-05-08T15:18:27.479Z,13.13
2023-05-08T15:22:29.483Z,11.37
2023-05-08T15:26:30.644Z,12.10
2023-05-08T15:30:31.846Z,12.10
2023-05-08T15:34:33.203Z,13.17
2023-05-08T15:38:34.443Z,13.80
2023-05-08T15:42:36.203Z,13.30
2023-05-08T15:46:37.354Z,13.77
2023-05-08T15:50:38.515Z,13.77
2023-05-08T15:54:39.733Z,13.77
2023-05-08T15:58:40.895Z,12.07
2023-05-08T16:02:42.144Z,12.40
2023-05-08T16:06:43.354Z,12.77
2023-05-08T16:10:44.489Z,13.67
2023-05-08T16:14:45.640Z,14.90
2023-05-08T16:18:46.795Z,13.03
2023-05-08T16:22:54.307Z,27.43
2023-05-08T16:26:55.469Z,12.63
2023-05-08T16:30:56.632Z,13.83
2023-05-08T16:34:57.876Z,14.10
2023-05-08T16:39:01.622Z,14.30
2023-05-08T16:43:02.766Z,12.50
2023-05-08T16:47:03.969Z,12.43
2023-05-08T16:51:08.046Z,13.40
2023-05-08T16:55:10.569Z,13.37
2023-05-08T16:59:12.314Z,15.47
2023-05-08T17:03:14.040Z,13.53
2023-05-08T17:07:15.517Z,14.43
2023-05-08T17:11:16.667Z,15.27
2023-05-08T17:15:17.853Z,15.10
2023-05-08T17:19:19.004Z,14.87
2023-05-08T17:23:20.172Z,14.30
2023-05-08T17:27:21.334Z,8.67
2023-05-08T17:31:22.782Z,10.70
2023-05-08T17:35:24.742Z,15.47
2023-05-08T17:39:25.902Z,15.60
2023-05-08T17:43:27.869Z,13.53
2023-05-08T17:47:29.063Z,15.13
2023-05-08T17:51:30.846Z,16.50
2023-05-08T17:55:34.389Z,13.17
2023-05-08T17:59:35.862Z,12.10
2023-05-08T18:03:37.831Z,15.20
2023-05-08T18:07:39.390Z,14.10
2023-05-08T18:11:41.160Z,13.93
2023-05-08T18:15:43.219Z,15.20
2023-05-08T18:19:45.363Z,14.50
2023-05-08T18:23:47.353Z,14.87
2023-05-08T18:27:50.077Z,14.70
2023-05-08T18:31:51.481Z,14.13
2023-05-08T18:35:52.653Z,14.17
2023-05-08T18:39:53.830Z,14.13
2023-05-08T18:43:55.680Z,14.17
2023-05-08T18:47:56.926Z,16.40
2023-05-08T18:51:58.068Z,14.03
2023-05-08T18:56:02.026Z,15.50
2023-05-08T19:00:04.223Z,14.83
2023-05-08T19:04:05.499Z,16.23
2023-05-08T19:08:06.750Z,15.07
2023-05-08T19:12:07.908Z,14.50
2023-05-08T19:16:09.161Z,14.47
2023-05-08T19:20:12.254Z,14.70
2023-05-08T19:24:15.384Z,13.67
2023-05-08T19:28:16.568Z,14.57
2023-05-08T19:32:17.731Z,14.67
2023-05-08T19:36:18.893Z,13.50
2023-05-08T19:40:20.051Z,14.57
2023-05-08T19:44:21.230Z,14.23
2023-05-08T19:48:22.911Z,14.87
2023-05-08T19:52:24.195Z,16.87
2023-05-08T19:56:25.491Z,31.53
2023-05-08T20:00:26.725Z,17.00
2023-05-08T20:04:28.390Z,17.03
2023-05-08T20:08:29.523Z,16.67
2023-05-08T20:12:30.698Z,16.83
2023-05-08T20:16:31.947Z,17.90
2023-05-08T20:20:34.198Z,16.77
2023-05-08T20:24:35.367Z,17.90
2023-05-08T20:28:38.411Z,16.43
2023-05-08T20:32:39.716Z,17.20
2023-05-08T20:36:40.790Z,17.10
2023-05-08T20:40:42.055Z,18.80
2023-05-08T20:44:43.223Z,18.37
2023-05-08T20:48:44.346Z,17.33
2023-05-08T20:52:45.493Z,17.60
2023-05-08T20:56:46.653Z,17.37
2023-05-08T21:00:47.900Z,16.43
2023-05-08T21:04:49.049Z,18.30
2023-05-08T21:08:50.186Z,18.10
2023-05-08T21:12:51.413Z,20.90
2023-05-08T21:16:55.769Z,18.47
2023-05-08T21:20:57.020Z,19.93
2023-05-08T21:24:58.174Z,18.57
2023-05-08T21:28:59.835Z,19.93
2023-05-08T21:33:02.229Z,19.17
2023-05-08T21:37:03.453Z,16.87
2023-05-08T21:41:08.324Z,17.60
2023-05-08T21:45:10.208Z,18.70
2023-05-08T21:49:11.280Z,17.17
2023-05-08T21:53:12.429Z,18.50
2023-05-08T21:57:13.595Z,18.70
2023-05-08T22:01:14.818Z,19.00
2023-05-08T22:05:16.178Z,18.30
2023-05-08T22:09:17.564Z,19.40
2023-05-08T22:13:18.736Z,20.43
2023-05-08T22:17:19.883Z,21.33
2023-05-08T22:21:21.038Z,19.07
2023-05-08T22:25:22.340Z,20.07
2023-05-08T22:29:23.536Z,21.47
2023-05-08T22:33:24.854Z,21.77
2023-05-08T22:37:26.572Z,21.67
2023-05-08T22:41:30.209Z,22.57
2023-05-08T22:45:31.813Z,20.73
2023-05-08T22:49:33.769Z,21.87
2023-05-08T22:53:34.903Z,21.93
2023-05-08T22:57:35.994Z,22.67
2023-05-08T23:01:37.184Z,21.53
2023-05-08T23:05:38.293Z,19.47
2023-05-08T23:09:39.537Z,20.80
2023-05-08T23:13:40.702Z,22.70
2023-05-08T23:17:41.885Z,22.70
2023-05-08T23:21:43.058Z,21.77
2023-05-08T23:25:44.295Z,24.63
2023-05-08T23:29:45.820Z,26.23
2023-05-08T23:33:47.055Z,26.70
2023-05-08T23:37:48.420Z,26.77
2023-05-08T23:41:49.594Z,24.83
2023-05-08T23:45:50.776Z,27.47
2023-05-08T23:49:52.039Z,22.63
2023-05-08T23:53:53.197Z,24.87
2023-05-08T23:57:55.777Z,24.83
